x

South Hatteras - 225 South Of Cape Hatteras (41002) Wave Buoy

5:50 - Thu 24th Jul 2014 All times are EDT. -4 hours from GMT.

  • Sig Wave height 4.9ft
  • Swell Direction
  • Peak Period 6s
  • Average Period 5s
  • Wind
    22mph, 27mph gusts
  • Sea Temp 82°f
  • Aire Temp 82°f
  • Sea Pressure 1016.4mb
  • South Hatteras - 225 South Of Cape Hatteras
  • South Hatteras - 225 South Of Cape Hatteras

More Historic Weather Station data

Upgrade to MSW Pro to gain access to the past 30 days of data for over 8000 Wavebouys and Weather Stations around the globe.

Join Pro

Comparision Forecast

View Surf forecast
   
jue 07/24 5:50 5ft 6s 5s 22 27 mph 1016.4mb 82f 82f
4:50 4.5ft 5s 4s 22 27 mph 1016.4mb 82f 82f
3:50 5ft 6s 5s 22 27 mph 1016.3mb 82f 82f
2:50 4.5ft 6s 5s 22 27 mph 1016.8mb 82f 82f
1:50 4.5ft 5s 5s 20 25 mph 1017.3mb 82f 82f
12:50 5ft 6s 5s 20 25 mph 1017.8mb 82f 82f
mié 07/23 11:50 4.5ft 6s 5s 20 25 mph 1017.9mb 82f 82f
10:50 4.5ft 5s 5s 20 25 mph 1017.8mb 82f 82f
9:50 4.5ft 7s 5s 20 25 mph 1017.9mb 82f 82f
8:50 4ft 5s 5s 20 22 mph 1018.2mb 82f 82f
7:50 4ft 6s 5s 18 22 mph 1018.5mb 82f 82f
6:50 4ft 5s 5s 18 22 mph 1018.6mb 82f 82f
5:50 4ft 5s 5s 16 18 mph 1018.6mb 82f 82f
4:50 4ft 5s 5s 18 20 mph 1018.9mb 82f 82f
3:50 4.5ft 5s 5s 20 22 mph 1019.5mb 83f 82f
2:50 4.5ft 5s 4s 20 22 mph 1020.1mb 82f 82f
1:50 4ft 5s 5s 20 25 mph 1020.3mb 82f 83f
12:50 4.5ft 5s 4s 20 25 mph 1020.5mb 82f 82f
11:50 4.5ft 4s 4s 20 25 mph 1020.6mb 82f 82f
10:50 4ft 7s 5s 20 25 mph 1020.3mb 82f 82f
9:50 3.5ft 6s 4s 20 25 mph 1020.2mb 82f 82f
8:50 3.5ft 7s 5s 18 22 mph 1020.4mb 82f 82f
7:50 3.5ft 7s 4s 18 20 mph 1020.8mb 82f 82f
6:50 3.5ft 7s 4s 16 20 mph 1020.3mb 82f 82f
5:50 3.5ft 6s 5s 16 18 mph 1020.3mb 82f 82f
4:50 3.5ft 6s 5s 16 18 mph 1020.1mb 82f 82f
3:50 3.5ft 6s 5s 13 16 mph 1020.4mb 82f 82f
2:50 3.5ft 7s 5s 16 18 mph 1020.4mb 82f 82f
1:50 3.5ft 7s 5s 18 20 mph 1020.4mb 82f 82f
12:50 3.5ft 6s 5s 18 20 mph 1020.6mb 82f 82f
mar 07/22 11:50 3.5ft 9s 5s 16 18 mph 1021.2mb 82f 82f
10:50 3.5ft 8s 5s 13 16 mph 1021.7mb 82f 81f
9:50 3.5ft 8s 5s 13 16 mph 1021.9mb 82f 81f
8:50 3.5ft 7s 5s 11 13 mph 1021.7mb 82f 82f
7:50 3ft 8s 5s 13 16 mph 1021.6mb 82f 81f
6:50 3.5ft 8s 5s 11 16 mph 1021.5mb 83f 82f
5:50 3.5ft 8s 5s 13 16 mph 1021.4mb 83f 82f
4:50 3.5ft 8s 5s 13 16 mph 1021.3mb 83f 82f
3:50 3.5ft 7s 5s 13 16 mph 1021.6mb 83f 82f
2:50 3.5ft 7s 5s 13 16 mph 1021.9mb 83f 82f
1:50 3.5ft 8s 5s 13 16 mph 1022.1mb 83f 82f
12:50 3.5ft 7s 5s 13 16 mph 1022.4mb 83f 82f
11:50 4ft 8s 5s 13 16 mph 1022.1mb 82f 82f
10:50 4ft 8s 5s 13 18 mph 1021.8mb 82f 82f
9:50 3.5ft 7s 5s 13 16 mph 1021.7mb 82f 82f
8:50 3.5ft 7s 5s 13 16 mph 1021.8mb 82f 82f
7:50 3.5ft 8s 5s 13 16 mph 1021.5mb 82f 81f
6:50 4ft 7s 5s 16 18 mph 1020.8mb 82f 81f
5:50 4ft 7s 5s 18
mph
1020.2mb 82f 81f
4:50 3.5ft 7s 5s 16 18 mph 1019.9mb 82f 81f
3:50 4ft 7s 5s 16 18 mph 1020mb 82f 81f
2:50 3.5ft 7s 5s 13 16 mph 1020.6mb 82f 81f
1:50 3.5ft 7s 5s 16 18 mph 1021.2mb 82f 82f
12:50 3.5ft 7s 5s 13 16 mph 1021.9mb 82f 81f
lun 07/21 11:50 3.5ft 7s 5s 16 18 mph 1021.8mb 82f 82f
9:50 3.5ft 7s 5s 13
mph
1021.7mb 82f 82f
8:50 3.5ft 8s 5s 13 16 mph 1021.2mb 82f 82f
7:50 3.5ft 8s 5s 11 13 mph 1021mb 82f 82f
5:50 3.5ft 7s 6s 7
mph
1020.5mb 82f 81f
4:50 3.5ft 7s 5s 9
mph
1020.5mb 82f 80f
3:50 3.5ft 8s 5s 7 9 mph 1020.5mb 82f 79f
2:50 3.5ft 8s 5s 11 13 mph 1020.6mb 82f 78f
1:50 3.5ft 7s 5s 18 20 mph 1021.5mb 82f 78f
12:50 4ft 8s 5s 11 13 mph 1021.9mb 82f 79f
11:50 3.5ft 7s 5s 7 11 mph 1022mb 82f 80f
10:50 4ft 8s 5s 11
mph
1022mb 82f 81f
9:50 3.5ft 7s 5s 13 18 mph 1021.3mb 82f 82f
8:50 4ft 7s 5s 13 16 mph 1021.1mb 82f 81f
7:50 4ft 7s 5s 13 18 mph 1020.6mb 82f 81f
6:50 3.5ft 7s 5s 16 20 mph 1020mb 82f 80f
5:50 3.5ft 7s 5s 13 16 mph 1019.7mb 82f 80f
4:50 3.5ft 7s 5s 11 16 mph 1019.4mb 82f 81f
3:50 3.5ft 7s 5s 13 16 mph 1019.1mb 82f 80f
2:50 4ft 8s 5s 11 16 mph 1019.3mb 82f 80f
1:50 4.5ft 8s 5s 13 16 mph 1019.9mb 82f 80f
12:50 3.5ft 8s 5s 16 20 mph 1019.7mb 82f 80f
dom 07/20 11:50 3.5ft 8s 5s 16 20 mph 1020mb 82f 79f
10:50 4ft 8s 6s 18 20 mph 1020.1mb 82f 78f
9:50 4ft 8s 5s 16 18 mph 1020.4mb 82f 77f
8:50 3.5ft 8s 6s 16 18 mph 1020.1mb 82f 77f
7:50 3.5ft 7s 6s 11 13 mph 1020.2mb 82f 79f
6:50 3.5ft 8s 6s 4 7 mph 1019.7mb 82f 78f
5:50 3.5ft 7s 6s 7 9 mph 1019.7mb 82f 75f
4:50 3.5ft 8s 6s 4 7 mph 1019.4mb 82f 76f
3:50 4ft 8s 5s 9 18 mph 1019.4mb 83f 79f
2:50 4ft 8s 5s 9 13 mph 1019.8mb 83f 80f
1:50 4.5ft 8s 5s 7 11 mph 1020.1mb 82f 79f
12:50 4.5ft 7s 6s 13 16 mph 1020.4mb 82f 79f
11:50 4.5ft 8s 6s 16 18 mph 1020.4mb 82f 80f